createdAt,value
2019-03-20T00:00:02.123Z,4.10
2019-03-20T00:01:02.109Z,3.96
2019-03-20T00:02:02.094Z,3.92
2019-03-20T00:03:02.080Z,3.94
2019-03-20T00:04:02.067Z,4.02
2019-03-20T00:05:02.055Z,4.01
2019-03-20T00:06:02.039Z,4.04
2019-03-20T00:07:02.030Z,3.87
2019-03-20T00:08:02.014Z,3.94
2019-03-20T00:09:02.018Z,3.94
2019-03-20T00:10:01.984Z,3.92
2019-03-20T00:11:01.971Z,3.94
2019-03-20T00:12:01.960Z,3.81
2019-03-20T00:13:01.944Z,3.84
2019-03-20T00:14:01.930Z,3.98
2019-03-20T00:15:01.916Z,3.95
2019-03-20T00:16:01.905Z,3.88
2019-03-20T00:17:03.963Z,4.05
2019-03-20T00:18:01.926Z,4.04
2019-03-20T00:19:01.870Z,3.98
2019-03-20T00:20:01.858Z,3.95
2019-03-20T00:21:01.835Z,3.91
2019-03-20T00:22:01.821Z,3.92
2019-03-20T00:23:01.809Z,3.86
2019-03-20T00:24:01.795Z,3.86
2019-03-20T00:25:01.780Z,3.99
2019-03-20T00:26:01.769Z,3.98
2019-03-20T00:27:01.774Z,3.95
2019-03-20T00:28:01.747Z,3.86
2019-03-20T00:29:01.727Z,3.86
2019-03-20T00:30:01.716Z,3.86
2019-03-20T00:31:01.697Z,3.81
2019-03-20T00:32:02.087Z,3.86
2019-03-20T00:33:01.675Z,3.81
2019-03-20T00:34:01.658Z,3.76
2019-03-20T00:35:01.663Z,3.80
2019-03-20T00:36:01.629Z,3.80
2019-03-20T00:37:01.628Z,3.81
2019-03-20T00:38:01.602Z,3.81
2019-03-20T00:39:01.588Z,3.87
2019-03-20T00:40:01.577Z,3.86
2019-03-20T00:41:01.566Z,3.88
2019-03-20T00:42:01.548Z,3.86
2019-03-20T00:43:01.535Z,3.91
2019-03-20T00:44:01.522Z,3.95
2019-03-20T00:45:01.506Z,3.83
2019-03-20T00:46:01.495Z,3.81
2019-03-20T00:47:01.481Z,3.86
2019-03-20T00:48:01.470Z,3.84
2019-03-20T00:49:01.452Z,3.83
2019-03-20T00:50:01.437Z,3.84
2019-03-20T00:51:01.426Z,3.77
2019-03-20T00:52:01.410Z,3.76
2019-03-20T00:53:01.400Z,3.65
2019-03-20T00:54:01.383Z,3.62
2019-03-20T00:55:01.371Z,3.58
2019-03-20T00:56:01.357Z,3.59
2019-03-20T00:57:01.349Z,3.59
2019-03-20T00:58:01.329Z,3.45
2019-03-20T00:59:01.320Z,3.53
2019-03-20T01:00:01.303Z,3.45
2019-03-20T01:01:01.291Z,3.44
2019-03-20T01:02:01.278Z,3.41
2019-03-20T01:03:01.264Z,3.47
2019-03-20T01:04:01.247Z,3.58
2019-03-20T01:05:08.490Z,3.58
2019-03-20T01:06:01.222Z,3.63
2019-03-20T01:07:01.212Z,3.68
2019-03-20T01:08:01.199Z,3.66
2019-03-20T01:09:01.182Z,3.76
2019-03-20T01:10:01.165Z,3.78
2019-03-20T01:11:01.204Z,3.76
2019-03-20T01:12:01.138Z,3.77
2019-03-20T01:13:01.126Z,3.73
2019-03-20T01:14:01.112Z,3.70
2019-03-20T01:15:01.107Z,3.74
2019-03-20T01:16:01.096Z,3.56
2019-03-20T01:17:01.070Z,3.58
2019-03-20T01:18:01.057Z,3.65
2019-03-20T01:19:01.045Z,3.65
2019-03-20T01:20:01.037Z,3.66
2019-03-20T01:21:01.016Z,3.58
2019-03-20T01:22:01.002Z,3.58
2019-03-20T01:23:00.989Z,3.63
2019-03-20T01:24:00.980Z,3.55
2019-03-20T01:25:00.960Z,3.53
2019-03-20T01:26:00.955Z,3.50
2019-03-20T01:27:00.932Z,3.47
2019-03-20T01:28:00.920Z,3.41
2019-03-20T01:29:00.909Z,3.42
2019-03-20T01:30:00.889Z,3.44
2019-03-20T01:31:00.876Z,3.50
2019-03-20T01:32:00.869Z,3.42
2019-03-20T01:33:00.847Z,3.47
2019-03-20T01:34:00.835Z,3.42
2019-03-20T01:35:00.825Z,3.45
2019-03-20T01:36:00.805Z,3.50
2019-03-20T01:37:00.791Z,3.48
2019-03-20T01:38:00.777Z,3.44
2019-03-20T01:39:00.762Z,3.44
2019-03-20T01:40:00.759Z,3.41
2019-03-20T01:41:00.736Z,3.44
2019-03-20T01:42:00.719Z,3.41
2019-03-20T01:43:00.705Z,3.31
2019-03-20T01:44:00.691Z,3.34
2019-03-20T01:45:00.713Z,3.31
2019-03-20T01:46:00.663Z,3.34
2019-03-20T01:47:00.649Z,3.34
2019-03-20T01:48:00.635Z,3.37
2019-03-20T01:49:00.622Z,3.32
2019-03-20T01:50:00.607Z,3.26
2019-03-20T01:51:00.593Z,3.25
2019-03-20T01:52:00.583Z,3.26
2019-03-20T01:53:00.566Z,3.23
2019-03-20T01:54:00.551Z,3.11
2019-03-20T01:55:00.537Z,3.07
2019-03-20T01:56:01.561Z,3.11
2019-03-20T01:57:00.513Z,3.13
2019-03-20T01:58:00.499Z,3.13
2019-03-20T01:59:00.481Z,3.10
2019-03-20T02:00:00.473Z,3.10
2019-03-20T02:01:00.457Z,3.07
2019-03-20T02:02:00.440Z,3.08
2019-03-20T02:03:00.428Z,3.04
2019-03-20T02:04:00.414Z,3.05
2019-03-20T02:05:00.399Z,3.04
2019-03-20T02:06:00.385Z,3.04
2019-03-20T02:07:00.371Z,3.04
2019-03-20T02:08:00.358Z,3.01
2019-03-20T02:09:00.344Z,3.08
2019-03-20T02:10:00.367Z,3.08
2019-03-20T02:11:00.316Z,3.23
2019-03-20T02:12:00.302Z,3.18
2019-03-20T02:13:01.041Z,3.23
2019-03-20T02:14:00.275Z,3.22
2019-03-20T02:15:00.367Z,3.18
2019-03-20T02:16:00.348Z,3.28
2019-03-20T02:17:00.233Z,3.37
2019-03-20T02:18:00.219Z,3.32
2019-03-20T02:19:00.207Z,3.16
2019-03-20T02:20:00.356Z,3.29
2019-03-20T02:21:00.283Z,3.29
2019-03-20T02:22:00.213Z,3.22
2019-03-20T02:23:00.249Z,3.28
2019-03-20T02:24:00.141Z,3.25
2019-03-20T02:25:00.148Z,3.25
2019-03-20T02:26:00.108Z,3.28
2019-03-20T02:27:00.093Z,3.29
2019-03-20T02:28:00.083Z,3.37
2019-03-20T02:29:00.068Z,3.37
2019-03-20T02:30:00.051Z,3.36
2019-03-20T02:31:00.040Z,3.32
2019-03-20T02:32:00.025Z,3.48
2019-03-20T02:33:00.010Z,3.42
2019-03-20T02:33:59.997Z,3.36
2019-03-20T02:34:59.983Z,3.40
2019-03-20T02:35:59.974Z,3.44
2019-03-20T02:36:59.955Z,3.45
2019-03-20T02:37:59.941Z,3.50
2019-03-20T02:38:59.927Z,3.42
2019-03-20T02:39:59.913Z,3.44
2019-03-20T02:40:59.899Z,3.45
2019-03-20T02:41:59.890Z,3.53
2019-03-20T02:42:59.870Z,3.59
2019-03-20T02:43:59.882Z,3.53
2019-03-20T02:44:59.843Z,3.47
2019-03-20T02:45:59.829Z,3.44
2019-03-20T02:46:59.865Z,3.42
2019-03-20T02:47:59.851Z,3.44
2019-03-20T02:48:59.788Z,3.44
2019-03-20T02:49:59.774Z,3.37
2019-03-20T02:50:59.761Z,3.42
2019-03-20T02:51:59.760Z,3.37
2019-03-20T02:52:59.732Z,3.32
2019-03-20T02:53:59.718Z,3.34
2019-03-20T02:54:59.705Z,3.22
2019-03-20T02:55:59.694Z,3.25
2019-03-20T02:56:59.677Z,3.22
2019-03-20T02:57:59.661Z,3.18
2019-03-20T02:58:59.659Z,3.21
2019-03-20T02:59:59.636Z,3.14
2019-03-20T03:00:59.622Z,3.13
2019-03-20T03:01:59.605Z,3.13
2019-03-20T03:02:59.592Z,3.10
2019-03-20T03:03:59.578Z,3.10
2019-03-20T03:04:59.569Z,3.05
2019-03-20T03:06:06.560Z,3.05
2019-03-20T03:06:59.536Z,3.10
2019-03-20T03:07:59.524Z,3.13
2019-03-20T03:08:59.510Z,3.16
2019-03-20T03:09:59.493Z,3.16
2019-03-20T03:10:59.485Z,3.21
2019-03-20T03:11:59.465Z,3.19
2019-03-20T03:12:59.455Z,3.16
2019-03-20T03:13:59.436Z,3.18
2019-03-20T03:14:59.423Z,3.11
2019-03-20T03:15:59.411Z,3.13
2019-03-20T03:16:59.395Z,3.18
2019-03-20T03:17:59.381Z,3.21
2019-03-20T03:18:59.365Z,3.18
2019-03-20T03:19:59.351Z,3.26
2019-03-20T03:20:59.335Z,3.32
2019-03-20T03:21:59.322Z,3.31
2019-03-20T03:22:59.307Z,3.32
2019-03-20T03:23:59.300Z,3.32
2019-03-20T03:24:59.279Z,3.48
2019-03-20T03:25:59.263Z,3.42
2019-03-20T03:26:59.250Z,3.47
2019-03-20T03:27:59.236Z,3.42
2019-03-20T03:28:59.222Z,3.45
2019-03-20T03:29:59.208Z,3.41
2019-03-20T03:30:59.196Z,3.41
2019-03-20T03:31:59.188Z,3.40
2019-03-20T03:32:59.173Z,3.40
2019-03-20T03:33:59.156Z,3.50
2019-03-20T03:34:59.151Z,3.40
2019-03-20T03:35:59.123Z,3.45
2019-03-20T03:36:59.108Z,3.44
2019-03-20T03:37:59.094Z,3.42
2019-03-20T03:38:59.135Z,3.29
2019-03-20T03:39:59.068Z,3.34
2019-03-20T03:40:59.052Z,3.28
2019-03-20T03:41:59.038Z,3.32
2019-03-20T03:42:59.029Z,3.34
2019-03-20T03:43:59.011Z,3.23
2019-03-20T03:44:59.000Z,3.29
2019-03-20T03:45:58.982Z,3.25
2019-03-20T03:46:58.970Z,3.11
2019-03-20T03:47:58.954Z,3.08
2019-03-20T03:48:58.945Z,3.08
2019-03-20T03:49:58.932Z,3.13
2019-03-20T03:50:58.913Z,3.10
2019-03-20T03:51:58.899Z,3.19
2019-03-20T03:52:58.886Z,3.18
2019-03-20T03:53:58.871Z,3.23
2019-03-20T03:54:58.857Z,3.19
2019-03-20T03:55:58.868Z,3.18
2019-03-20T03:56:58.828Z,3.18
2019-03-20T03:57:58.816Z,3.22
2019-03-20T03:58:58.808Z,3.25
2019-03-20T03:59:58.786Z,3.25
2019-03-20T04:00:58.772Z,3.21
2019-03-20T04:01:58.764Z,3.23
2019-03-20T04:02:58.756Z,3.23
2019-03-20T04:03:58.740Z,3.21
2019-03-20T04:04:58.721Z,3.23
2019-03-20T04:05:58.705Z,3.10
2019-03-20T04:06:58.693Z,3.07
2019-03-20T04:07:58.678Z,3.08
2019-03-20T04:08:58.664Z,3.21
2019-03-20T04:09:58.654Z,3.22
2019-03-20T04:10:58.634Z,3.19
2019-03-20T04:11:58.621Z,3.22
2019-03-20T04:12:58.608Z,3.32
2019-03-20T04:13:58.642Z,3.25
2019-03-20T04:14:58.577Z,3.31
2019-03-20T04:15:58.564Z,3.34
2019-03-20T04:16:58.554Z,3.42
2019-03-20T04:17:58.536Z,3.32
2019-03-20T04:18:58.528Z,3.23
2019-03-20T04:19:58.517Z,3.16
2019-03-20T04:20:58.496Z,3.23
2019-03-20T04:21:58.480Z,3.19
2019-03-20T04:22:58.473Z,3.08
2019-03-20T04:23:58.454Z,3.08
2019-03-20T04:24:58.523Z,3.04
2019-03-20T04:25:58.426Z,3.01
2019-03-20T04:26:58.412Z,3.05
2019-03-20T04:27:58.398Z,3.10
2019-03-20T04:28:58.392Z,3.10
2019-03-20T04:29:58.409Z,3.18
2019-03-20T04:30:58.363Z,3.16
2019-03-20T04:31:58.346Z,3.22
2019-03-20T04:32:58.330Z,3.22
2019-03-20T04:33:58.332Z,3.18
2019-03-20T04:34:58.311Z,3.18
2019-03-20T04:35:58.292Z,3.25
2019-03-20T04:36:58.278Z,3.40
2019-03-20T04:37:58.264Z,3.44
2019-03-20T04:38:58.248Z,3.41
2019-03-20T04:39:58.236Z,3.58
2019-03-20T04:40:58.226Z,3.68
2019-03-20T04:41:58.210Z,3.62
2019-03-20T04:42:58.197Z,3.70
2019-03-20T04:43:58.184Z,3.76
2019-03-20T04:44:58.171Z,3.78
2019-03-20T04:45:58.154Z,3.80
2019-03-20T04:46:58.143Z,3.73
2019-03-20T04:47:58.128Z,3.81
2019-03-20T04:48:58.115Z,3.77
2019-03-20T04:49:58.100Z,3.77
2019-03-20T04:50:58.087Z,3.88
2019-03-20T04:51:58.073Z,3.99
2019-03-20T04:52:58.061Z,4.04
2019-03-20T04:53:58.047Z,4.04
2019-03-20T04:54:58.034Z,4.08
2019-03-20T04:55:58.021Z,4.17
2019-03-20T04:56:58.007Z,4.30
2019-03-20T04:57:57.993Z,4.28
2019-03-20T04:58:57.980Z,4.35
2019-03-20T04:59:57.967Z,4.37
2019-03-20T05:00:57.954Z,4.35
2019-03-20T05:01:57.941Z,4.42
2019-03-20T05:02:57.928Z,4.44
2019-03-20T05:03:57.914Z,4.45
2019-03-20T05:04:57.902Z,4.45
2019-03-20T05:05:57.889Z,4.42
2019-03-20T05:06:59.054Z,4.44
2019-03-20T05:07:57.862Z,4.55
2019-03-20T05:08:57.852Z,4.63
2019-03-20T05:09:57.839Z,4.59
2019-03-20T05:10:57.823Z,4.58
2019-03-20T05:11:57.810Z,4.63
2019-03-20T05:12:57.797Z,4.68
2019-03-20T05:13:57.783Z,4.68
2019-03-20T05:14:57.774Z,4.70
2019-03-20T05:15:57.760Z,4.67
2019-03-20T05:16:57.749Z,4.67
2019-03-20T05:17:57.733Z,4.59
2019-03-20T05:18:57.723Z,4.55
2019-03-20T05:19:57.708Z,4.60
2019-03-20T05:20:57.696Z,4.67
2019-03-20T05:21:57.683Z,4.66
2019-03-20T05:22:57.670Z,4.68
2019-03-20T05:23:57.693Z,4.70
2019-03-20T05:24:57.645Z,4.80
2019-03-20T05:25:57.632Z,4.71
2019-03-20T05:26:57.620Z,4.73
2019-03-20T05:27:57.609Z,4.75
2019-03-20T05:28:57.595Z,4.82
2019-03-20T05:29:57.633Z,4.71
2019-03-20T05:30:57.573Z,4.73
2019-03-20T05:31:57.559Z,4.74
2019-03-20T05:32:57.545Z,4.74
2019-03-20T05:33:57.535Z,4.74
2019-03-20T05:34:57.520Z,4.75
2019-03-20T05:35:57.508Z,4.77
2019-03-20T05:36:57.505Z,4.73
2019-03-20T05:37:57.482Z,4.74
2019-03-20T05:38:57.469Z,4.78
2019-03-20T05:39:57.458Z,4.73
2019-03-20T05:40:57.446Z,4.84
2019-03-20T05:41:57.438Z,4.80
2019-03-20T05:42:57.418Z,4.80
2019-03-20T05:43:57.405Z,4.86
2019-03-20T05:44:57.398Z,4.87
2019-03-20T05:45:57.380Z,4.89
2019-03-20T05:46:57.367Z,4.94
2019-03-20T05:47:57.356Z,4.99
2019-03-20T05:48:57.345Z,5.04
2019-03-20T05:49:57.333Z,5.02
2019-03-20T05:50:57.318Z,5.05
2019-03-20T05:51:57.304Z,5.05
2019-03-20T05:52:57.292Z,5.17
2019-03-20T05:53:57.279Z,5.18
2019-03-20T05:54:57.291Z,5.21
2019-03-20T05:55:57.254Z,5.28
2019-03-20T05:56:57.242Z,5.29
2019-03-20T05:57:57.229Z,5.30
2019-03-20T05:58:57.217Z,5.28
2019-03-20T05:59:57.204Z,5.28
2019-03-20T06:00:57.192Z,5.28
2019-03-20T06:01:57.180Z,5.36
2019-03-20T06:02:57.167Z,5.32
2019-03-20T06:03:57.155Z,5.36
2019-03-20T06:04:57.143Z,5.39
2019-03-20T06:05:57.130Z,5.43
2019-03-20T06:06:57.118Z,5.36
2019-03-20T06:07:57.108Z,5.46
2019-03-20T06:08:57.096Z,5.51
2019-03-20T06:09:57.083Z,5.48
2019-03-20T06:10:57.069Z,5.50
2019-03-20T06:11:57.058Z,5.57
2019-03-20T06:12:57.048Z,5.54
2019-03-20T06:13:57.033Z,5.56
2019-03-20T06:14:57.025Z,5.56
2019-03-20T06:15:57.009Z,5.54
2019-03-20T06:16:56.997Z,5.57
2019-03-20T06:17:56.985Z,5.57
2019-03-20T06:18:56.973Z,5.64
2019-03-20T06:19:56.961Z,5.65
2019-03-20T06:20:56.949Z,5.65
2019-03-20T06:21:56.936Z,5.66
2019-03-20T06:22:56.926Z,5.65
2019-03-20T06:23:56.913Z,5.68
2019-03-20T06:24:56.902Z,5.69
2019-03-20T06:25:56.891Z,5.65
2019-03-20T06:26:56.877Z,5.80
2019-03-20T06:27:56.866Z,5.80
2019-03-20T06:28:56.854Z,5.80
2019-03-20T06:29:56.847Z,5.84
2019-03-20T06:30:56.833Z,5.83
2019-03-20T06:31:56.821Z,5.82
2019-03-20T06:32:56.806Z,5.79
2019-03-20T06:33:56.794Z,5.91
2019-03-20T06:34:56.782Z,5.91
2019-03-20T06:35:56.770Z,5.94
2019-03-20T06:36:56.759Z,5.94
2019-03-20T06:37:56.754Z,5.98
2019-03-20T06:38:56.736Z,5.91
2019-03-20T06:39:56.723Z,5.99
2019-03-20T06:40:56.712Z,6.01
2019-03-20T06:41:56.699Z,6.05
2019-03-20T06:42:56.687Z,6.12
2019-03-20T06:43:56.770Z,6.22
2019-03-20T06:44:56.664Z,6.14
2019-03-20T06:45:56.654Z,6.16
2019-03-20T06:46:56.641Z,6.17
2019-03-20T06:47:56.629Z,6.22
2019-03-20T06:48:56.619Z,6.22
2019-03-20T06:49:56.606Z,6.35
2019-03-20T06:50:56.594Z,6.38
2019-03-20T06:51:56.583Z,6.42
2019-03-20T06:52:56.572Z,6.45
2019-03-20T06:53:56.562Z,6.46
2019-03-20T06:54:56.549Z,6.56
2019-03-20T06:55:56.538Z,6.54
2019-03-20T06:56:56.526Z,6.49
2019-03-20T06:57:56.514Z,6.60
2019-03-20T06:58:56.503Z,6.60
2019-03-20T06:59:56.492Z,6.69
2019-03-20T07:00:56.482Z,6.72
2019-03-20T07:01:56.470Z,6.69
2019-03-20T07:02:56.458Z,6.79
2019-03-20T07:03:56.446Z,6.77
2019-03-20T07:04:56.438Z,6.88
2019-03-20T07:05:56.423Z,6.85
2019-03-20T07:06:56.412Z,6.84
2019-03-20T07:07:56.401Z,6.87
2019-03-20T07:08:56.391Z,7.00
2019-03-20T07:09:56.378Z,6.96
2019-03-20T07:10:56.367Z,7.00
2019-03-20T07:11:56.357Z,7.10
2019-03-20T07:12:56.348Z,7.20
2019-03-20T07:13:56.335Z,7.20
2019-03-20T07:14:56.323Z,7.24
2019-03-20T07:15:56.313Z,7.21
2019-03-20T07:16:56.304Z,7.24
2019-03-20T07:17:56.290Z,7.23
2019-03-20T07:18:56.280Z,7.29
2019-03-20T07:19:56.271Z,7.21
2019-03-20T07:20:56.313Z,7.33
2019-03-20T07:21:56.248Z,7.25
2019-03-20T07:22:56.237Z,7.28
2019-03-20T07:23:56.227Z,7.32
2019-03-20T07:24:56.217Z,7.45
2019-03-20T07:25:56.206Z,7.54
2019-03-20T07:26:56.195Z,7.53
2019-03-20T07:27:56.187Z,7.66
2019-03-20T07:28:56.175Z,7.70
2019-03-20T07:29:56.164Z,7.70
2019-03-20T07:30:56.153Z,7.85
2019-03-20T07:31:56.143Z,7.87
2019-03-20T07:32:56.133Z,7.91
2019-03-20T07:33:56.122Z,7.91
2019-03-20T07:34:56.112Z,7.97
2019-03-20T07:35:56.103Z,8.00
2019-03-20T07:36:56.092Z,8.05
2019-03-20T07:37:56.553Z,8.00
2019-03-20T07:38:56.080Z,8.13
2019-03-20T07:39:56.060Z,8.18
2019-03-20T07:40:56.051Z,8.20
2019-03-20T07:41:56.042Z,8.19
2019-03-20T07:42:56.030Z,8.30
2019-03-20T07:43:56.027Z,8.34
2019-03-20T07:44:56.010Z,8.36
2019-03-20T07:45:55.999Z,8.34
2019-03-20T07:46:55.990Z,8.31
2019-03-20T07:47:55.980Z,8.41
2019-03-20T07:48:55.973Z,8.41
2019-03-20T07:49:55.959Z,8.37
2019-03-20T07:50:55.949Z,8.37
2019-03-20T07:51:55.990Z,8.34
2019-03-20T07:52:55.930Z,8.45
2019-03-20T07:53:55.923Z,8.56
2019-03-20T07:54:55.911Z,8.52
2019-03-20T07:55:55.900Z,8.64
2019-03-20T07:56:55.943Z,8.64
2019-03-20T07:57:55.880Z,8.73
2019-03-20T07:58:55.871Z,8.74
2019-03-20T07:59:55.861Z,8.70
2019-03-20T08:00:55.852Z,8.73
2019-03-20T08:01:55.843Z,8.85
2019-03-20T08:02:55.832Z,8.82
2019-03-20T08:03:55.823Z,8.79
2019-03-20T08:04:55.814Z,8.88
2019-03-20T08:05:55.804Z,8.87
2019-03-20T08:06:55.797Z,8.91
2019-03-20T08:08:06.423Z,9.02
2019-03-20T08:08:55.776Z,9.03
2019-03-20T08:09:55.768Z,9.03
2019-03-20T08:10:55.761Z,9.13
2019-03-20T08:11:55.748Z,9.13
2019-03-20T08:12:55.739Z,9.13
2019-03-20T08:13:55.732Z,9.25
2019-03-20T08:14:55.722Z,9.29
2019-03-20T08:15:55.716Z,9.26
2019-03-20T08:16:55.702Z,9.29
2019-03-20T08:17:55.693Z,9.43
2019-03-20T08:18:55.683Z,9.41
2019-03-20T08:19:55.690Z,9.41
2019-03-20T08:20:55.666Z,9.50
2019-03-20T08:21:55.655Z,9.54
2019-03-20T08:22:55.647Z,9.56
2019-03-20T08:23:55.638Z,9.56
2019-03-20T08:24:55.903Z,9.50
2019-03-20T08:25:55.620Z,9.40
2019-03-20T08:26:55.611Z,9.37
2019-03-20T08:27:55.603Z,9.46
2019-03-20T08:28:55.594Z,9.59
2019-03-20T08:29:55.583Z,9.66
2019-03-20T08:30:55.575Z,9.76
2019-03-20T08:31:55.566Z,9.79
2019-03-20T08:32:55.559Z,9.87
2019-03-20T08:33:55.547Z,9.77
2019-03-20T08:34:55.538Z,9.80
2019-03-20T08:35:55.529Z,9.72
2019-03-20T08:36:55.521Z,9.66
2019-03-20T08:37:55.511Z,9.62
2019-03-20T08:38:55.502Z,9.74
2019-03-20T08:39:55.493Z,9.80
2019-03-20T08:40:55.483Z,9.84
2019-03-20T08:41:55.474Z,9.82
2019-03-20T08:42:55.516Z,9.82
2019-03-20T08:43:55.457Z,9.80
2019-03-20T08:44:55.448Z,9.79
2019-03-20T08:45:55.443Z,9.82
2019-03-20T08:46:55.434Z,9.86
2019-03-20T08:47:55.421Z,9.94
2019-03-20T08:48:55.412Z,9.94
2019-03-20T08:49:55.403Z,9.84
2019-03-20T08:50:55.393Z,10.01
2019-03-20T08:51:55.384Z,10.09
2019-03-20T08:52:55.376Z,10.15
2019-03-20T08:53:56.302Z,10.15
2019-03-20T08:54:55.358Z,10.19
2019-03-20T08:55:55.349Z,10.16
2019-03-20T08:56:55.341Z,10.17
2019-03-20T08:57:55.331Z,10.23
2019-03-20T08:58:55.322Z,10.33
2019-03-20T08:59:55.314Z,10.33
2019-03-20T09:00:55.306Z,10.40
2019-03-20T09:01:55.297Z,10.44
2019-03-20T09:02:55.288Z,10.30
2019-03-20T09:03:55.279Z,10.17
2019-03-20T09:04:55.272Z,10.15
2019-03-20T09:05:55.262Z,10.33
2019-03-20T09:06:55.253Z,10.25
2019-03-20T09:07:55.245Z,10.34
2019-03-20T09:08:55.251Z,10.33
2019-03-20T09:09:55.227Z,10.34
2019-03-20T09:10:55.223Z,10.33
2019-03-20T09:11:55.211Z,10.33
2019-03-20T09:12:55.203Z,10.42
2019-03-20T09:13:55.194Z,10.44
2019-03-20T09:14:55.184Z,10.57
2019-03-20T09:15:55.177Z,10.56
2019-03-20T09:16:55.168Z,10.54
2019-03-20T09:17:55.160Z,10.54
2019-03-20T09:18:55.151Z,10.51
2019-03-20T09:19:55.142Z,10.53
2019-03-20T09:20:55.135Z,10.49
2019-03-20T09:21:55.125Z,10.48
2019-03-20T09:22:55.118Z,10.44
2019-03-20T09:23:55.118Z,10.46
2019-03-20T09:24:55.101Z,10.41
2019-03-20T09:25:55.092Z,10.42
2019-03-20T09:26:55.085Z,10.38
2019-03-20T09:27:55.075Z,10.48
2019-03-20T09:28:55.070Z,10.57
2019-03-20T09:29:55.060Z,10.64
2019-03-20T09:30:55.061Z,10.74
2019-03-20T09:31:55.042Z,10.74
2019-03-20T09:32:55.037Z,10.72
2019-03-20T09:33:55.057Z,10.87
2019-03-20T09:34:55.020Z,10.93
2019-03-20T09:35:55.010Z,11.07
2019-03-20T09:36:55.003Z,11.17
2019-03-20T09:37:54.993Z,11.19
2019-03-20T09:38:54.988Z,11.26
2019-03-20T09:39:54.978Z,11.19
2019-03-20T09:40:54.971Z,11.19
2019-03-20T09:41:54.962Z,11.36
2019-03-20T09:42:54.956Z,11.40
2019-03-20T09:43:54.950Z,11.40
2019-03-20T09:44:54.942Z,11.52
2019-03-20T09:45:56.868Z,11.60
2019-03-20T09:46:54.927Z,11.57
2019-03-20T09:47:54.921Z,11.57
2019-03-20T09:48:54.917Z,11.60
2019-03-20T09:49:54.909Z,11.65
2019-03-20T09:50:54.900Z,11.69
2019-03-20T09:51:54.897Z,11.83
2019-03-20T09:52:54.889Z,12.00
2019-03-20T09:53:54.884Z,12.24
2019-03-20T09:54:54.875Z,12.39
2019-03-20T09:55:54.871Z,12.55
2019-03-20T09:56:54.864Z,12.42
2019-03-20T09:57:54.860Z,12.36
2019-03-20T09:58:54.853Z,12.18
2019-03-20T09:59:54.849Z,12.32
2019-03-20T10:00:54.842Z,12.50
2019-03-20T10:01:54.836Z,12.57
2019-03-20T10:02:54.831Z,12.57
2019-03-20T10:03:54.830Z,12.68
2019-03-20T10:04:54.829Z,12.65
2019-03-20T10:05:54.820Z,12.76
2019-03-20T10:06:54.814Z,12.90
2019-03-20T10:07:54.820Z,13.00
2019-03-20T10:08:54.803Z,13.16
2019-03-20T10:09:54.798Z,13.30
2019-03-20T10:10:54.794Z,13.25
2019-03-20T10:11:54.790Z,13.23
2019-03-20T10:12:54.788Z,13.00
2019-03-20T10:13:54.787Z,12.98
2019-03-20T10:14:54.778Z,12.91
2019-03-20T10:15:54.779Z,12.83
2019-03-20T10:16:54.772Z,12.80
2019-03-20T10:17:54.764Z,12.68
2019-03-20T10:18:54.763Z,12.64
2019-03-20T10:19:54.807Z,12.54
2019-03-20T10:20:54.751Z,12.49
2019-03-20T10:21:54.745Z,12.29
2019-03-20T10:22:54.743Z,12.45
2019-03-20T10:23:54.735Z,12.46
2019-03-20T10:24:54.730Z,12.32
2019-03-20T10:25:54.723Z,12.24
2019-03-20T10:26:54.719Z,12.18
2019-03-20T10:27:54.713Z,12.35
2019-03-20T10:28:54.712Z,12.31
2019-03-20T10:29:54.700Z,12.57
2019-03-20T10:30:54.694Z,12.78
2019-03-20T10:31:54.694Z,12.86
2019-03-20T10:32:54.686Z,12.80
2019-03-20T10:33:54.677Z,12.50
2019-03-20T10:34:54.672Z,12.31
2019-03-20T10:35:54.665Z,12.22
2019-03-20T10:36:54.666Z,12.17
2019-03-20T10:37:54.654Z,12.09
2019-03-20T10:39:05.783Z,12.28
2019-03-20T10:39:54.641Z,12.43
2019-03-20T10:40:54.635Z,12.57
2019-03-20T10:41:54.628Z,12.73
2019-03-20T10:42:54.623Z,12.80
2019-03-20T10:43:54.639Z,12.83
2019-03-20T10:44:54.619Z,13.09
2019-03-20T10:45:54.604Z,13.20
2019-03-20T10:46:54.599Z,13.09
2019-03-20T10:47:54.594Z,13.16
2019-03-20T10:48:56.351Z,13.22
2019-03-20T10:49:54.583Z,13.20
2019-03-20T10:50:54.578Z,13.09
2019-03-20T10:51:54.572Z,13.03
2019-03-20T10:52:54.584Z,12.86
2019-03-20T10:53:54.560Z,12.83
2019-03-20T10:54:54.554Z,12.91
2019-03-20T10:55:54.554Z,13.01
2019-03-20T10:56:54.546Z,13.01
2019-03-20T10:57:54.538Z,13.11
2019-03-20T10:58:54.531Z,12.97
2019-03-20T10:59:54.530Z,13.00
2019-03-20T11:00:54.523Z,12.90
2019-03-20T11:01:54.513Z,12.86
2019-03-20T11:02:54.508Z,12.87
2019-03-20T11:03:54.505Z,12.85
2019-03-20T11:04:54.500Z,13.00
2019-03-20T11:05:54.489Z,13.25
2019-03-20T11:06:54.492Z,13.30
2019-03-20T11:07:54.479Z,13.23
2019-03-20T11:08:54.473Z,12.97
2019-03-20T11:09:54.468Z,12.90
2019-03-20T11:10:54.463Z,12.93
2019-03-20T11:11:54.464Z,12.94
2019-03-20T11:12:54.450Z,13.01
2019-03-20T11:13:54.482Z,13.28
2019-03-20T11:14:54.440Z,13.52
2019-03-20T11:15:54.434Z,13.70
2019-03-20T11:16:54.437Z,13.92
2019-03-20T11:17:54.432Z,14.10
2019-03-20T11:18:54.420Z,14.30
2019-03-20T11:19:56.347Z,14.48
2019-03-20T11:20:54.412Z,14.44
2019-03-20T11:21:54.407Z,14.55
2019-03-20T11:22:54.405Z,14.25
2019-03-20T11:23:54.402Z,14.07
2019-03-20T11:24:54.401Z,14.17
2019-03-20T11:25:54.396Z,14.18
2019-03-20T11:26:54.391Z,14.20
2019-03-20T11:27:54.388Z,14.22
2019-03-20T11:28:54.383Z,14.18
2019-03-20T11:29:54.385Z,13.89
2019-03-20T11:30:54.376Z,13.70
2019-03-20T11:31:54.372Z,13.50
2019-03-20T11:32:54.367Z,13.46
2019-03-20T11:33:54.363Z,13.39
2019-03-20T11:34:54.360Z,13.65
2019-03-20T11:35:54.353Z,13.87
2019-03-20T11:36:54.349Z,14.05
2019-03-20T11:37:54.345Z,14.07
2019-03-20T11:38:54.341Z,13.95
2019-03-20T11:39:54.337Z,13.87
2019-03-20T11:40:54.333Z,13.93
2019-03-20T11:41:54.329Z,14.30
2019-03-20T11:42:54.325Z,14.47
2019-03-20T11:43:54.322Z,14.32
2019-03-20T11:44:54.320Z,14.32
2019-03-20T11:45:54.325Z,14.35
2019-03-20T11:46:54.312Z,14.45
2019-03-20T11:47:54.311Z,14.70
2019-03-20T11:48:54.307Z,14.66
2019-03-20T11:49:54.304Z,14.48
2019-03-20T11:50:54.302Z,14.48
2019-03-20T11:51:54.299Z,14.62
2019-03-20T11:52:54.297Z,14.79
2019-03-20T11:53:54.293Z,14.81
2019-03-20T11:54:54.292Z,14.68
2019-03-20T11:55:54.289Z,14.59
2019-03-20T11:56:54.287Z,14.53
2019-03-20T11:57:54.288Z,14.66
2019-03-20T11:58:54.279Z,14.73
2019-03-20T11:59:54.276Z,14.91
2019-03-20T12:00:54.274Z,15.00
2019-03-20T12:01:54.270Z,15.00
2019-03-20T12:02:54.267Z,14.88
2019-03-20T12:03:54.265Z,14.72
2019-03-20T12:04:54.262Z,14.79
2019-03-20T12:05:54.265Z,14.68
2019-03-20T12:06:54.256Z,14.65
2019-03-20T12:07:54.252Z,14.72
2019-03-20T12:08:54.250Z,14.63
2019-03-20T12:09:54.246Z,14.51
2019-03-20T12:10:54.246Z,14.72
2019-03-20T12:11:54.240Z,15.00
2019-03-20T12:12:54.239Z,15.27
2019-03-20T12:13:54.234Z,15.42
2019-03-20T12:14:54.231Z,15.61
2019-03-20T12:15:54.228Z,15.52
2019-03-20T12:16:54.227Z,15.36
2019-03-20T12:17:54.228Z,15.31
2019-03-20T12:18:54.218Z,15.43
2019-03-20T12:19:54.216Z,15.37
2019-03-20T12:20:54.213Z,15.33
2019-03-20T12:21:54.209Z,15.10
2019-03-20T12:22:54.208Z,14.88
2019-03-20T12:23:54.202Z,14.97
2019-03-20T12:24:54.199Z,15.09
2019-03-20T12:25:54.194Z,15.28
2019-03-20T12:26:54.191Z,15.27
2019-03-20T12:27:54.204Z,15.36
2019-03-20T12:28:54.185Z,15.46
2019-03-20T12:29:54.179Z,15.49
2019-03-20T12:30:54.176Z,15.49
2019-03-20T12:31:54.175Z,15.58
2019-03-20T12:32:54.172Z,15.42
2019-03-20T12:33:54.164Z,15.27
2019-03-20T12:34:54.234Z,14.88
2019-03-20T12:35:54.157Z,14.70
2019-03-20T12:36:56.554Z,14.51
2019-03-20T12:37:54.149Z,14.53
2019-03-20T12:38:54.145Z,14.55
2019-03-20T12:39:54.140Z,14.50
2019-03-20T12:40:54.136Z,14.43
2019-03-20T12:41:54.131Z,14.55
2019-03-20T12:42:54.128Z,14.62
2019-03-20T12:43:54.122Z,14.45
2019-03-20T12:44:54.125Z,14.48
2019-03-20T12:45:54.113Z,14.63
2019-03-20T12:46:54.108Z,14.55
2019-03-20T12:47:54.104Z,14.77
2019-03-20T12:48:54.099Z,14.88
2019-03-20T12:49:54.094Z,15.02
2019-03-20T12:50:54.093Z,14.96
2019-03-20T12:51:54.086Z,14.94
2019-03-20T12:52:54.083Z,14.85
2019-03-20T12:53:54.086Z,14.65
2019-03-20T12:54:54.074Z,14.63
2019-03-20T12:55:54.068Z,14.58
2019-03-20T12:56:54.063Z,14.65
2019-03-20T12:57:54.058Z,14.43
2019-03-20T12:58:54.052Z,14.37
2019-03-20T12:59:54.083Z,14.36
2019-03-20T13:00:54.665Z,14.36
2019-03-20T13:01:54.037Z,14.35
2019-03-20T13:02:54.033Z,14.40
2019-03-20T13:03:54.027Z,14.36
2019-03-20T13:04:54.023Z,14.26
2019-03-20T13:05:54.016Z,14.23
2019-03-20T13:06:54.011Z,14.26
2019-03-20T13:07:54.006Z,14.37
2019-03-20T13:08:54.002Z,14.33